Terminal Aerodrome Forecast
Issued by NWS Portland, OR

Home | Current Version | Previous Version | Text Only | Print | Product List | Glossary On
Versions: 1 2 3 4 5 6 7 8 9 10 11 12 13 14 15 16 17 18 19 20
000
FTUS46 KPQR 262337
TAFSLE
TAF
KSLE 262337Z 2700/2724 VRB06KT P6SM -SHRA SCT020 BKN040
     FM270400 24006KT P6SM VCSH SCT025 BKN050
     FM270800 20007KT P6SM SCT020 OVC040
     FM271700 22009KT P6SM -SHRA SCT025 BKN040=

USA.gov is the U.S. government's official web portal to all federal, state and local government web resources and services.